createdAt,value
2018-12-12T00:02:12.445Z,2.88
2018-12-12T00:05:16.217Z,2.86
2018-12-12T00:08:17.873Z,2.83
2018-12-12T00:11:19.666Z,2.77
2018-12-12T00:14:21.357Z,2.70
2018-12-12T00:17:23.061Z,2.69
2018-12-12T00:20:24.758Z,2.71
2018-12-12T00:23:26.596Z,2.71
2018-12-12T00:26:28.224Z,2.70
2018-12-12T00:29:30.027Z,2.69
2018-12-12T00:32:31.770Z,2.69
2018-12-12T00:35:33.466Z,2.73
2018-12-12T00:38:35.208Z,2.73
2018-12-12T00:41:36.891Z,2.73
2018-12-12T00:44:38.697Z,2.74
2018-12-12T00:47:40.491Z,2.75
2018-12-12T00:50:42.107Z,2.72
2018-12-12T00:53:43.852Z,2.71
2018-12-12T00:56:45.985Z,2.70
2018-12-12T00:59:47.719Z,2.73
2018-12-12T01:02:49.583Z,2.72
2018-12-12T01:05:51.247Z,2.73
2018-12-12T01:08:52.990Z,2.73
2018-12-12T01:12:01.233Z,2.73
2018-12-12T01:15:03.057Z,2.71
2018-12-12T01:18:04.817Z,2.67
2018-12-12T01:21:06.564Z,2.69
2018-12-12T01:24:08.378Z,2.71
2018-12-12T01:27:10.116Z,2.75
2018-12-12T01:30:11.822Z,2.70
2018-12-12T01:33:13.556Z,2.70
2018-12-12T01:36:15.217Z,2.76
2018-12-12T01:39:16.977Z,2.78
2018-12-12T01:42:18.657Z,2.79
2018-12-12T01:45:20.357Z,2.83
2018-12-12T01:48:22.030Z,2.80
2018-12-12T01:51:23.758Z,2.84
2018-12-12T01:54:26.024Z,2.85
2018-12-12T01:57:27.738Z,2.80
2018-12-12T02:00:29.456Z,2.83
2018-12-12T02:03:31.179Z,2.80
2018-12-12T02:06:32.897Z,2.80
2018-12-12T02:09:34.617Z,2.78
2018-12-12T02:12:36.318Z,2.80
2018-12-12T02:15:37.986Z,2.81
2018-12-12T02:18:40.770Z,2.81
2018-12-12T02:21:42.467Z,2.82
2018-12-12T02:24:44.377Z,2.84
2018-12-12T02:27:46.308Z,2.85
2018-12-12T02:30:48.131Z,2.83
2018-12-12T02:33:49.862Z,2.83
2018-12-12T02:36:51.520Z,2.82
2018-12-12T02:39:53.228Z,2.84
2018-12-12T02:42:54.934Z,2.86
2018-12-12T02:45:56.690Z,2.84
2018-12-12T02:48:58.465Z,2.84
2018-12-12T02:52:00.291Z,2.87
2018-12-12T02:55:02.129Z,2.89
2018-12-12T02:58:03.984Z,2.91
2018-12-12T03:01:05.725Z,2.92
2018-12-12T03:04:07.434Z,2.90
2018-12-12T03:07:09.168Z,2.89
2018-12-12T03:10:10.854Z,2.93
2018-12-12T03:13:12.570Z,2.94
2018-12-12T03:16:14.277Z,2.90
2018-12-12T03:35:37.729Z,2.60
2018-12-12T03:38:39.458Z,2.55
2018-12-12T03:41:41.237Z,2.51
2018-12-12T03:44:43.077Z,2.47
2018-12-12T03:47:44.809Z,2.42
2018-12-12T03:50:46.585Z,2.40
2018-12-12T03:53:48.338Z,2.34
2018-12-12T03:56:50.105Z,2.26
2018-12-12T03:59:51.922Z,2.22
2018-12-12T04:02:53.725Z,2.19
2018-12-12T04:05:56.241Z,2.14
2018-12-12T04:08:57.974Z,2.16
2018-12-12T04:11:59.665Z,2.14
2018-12-12T04:15:01.447Z,2.14
2018-12-12T04:18:03.165Z,2.16
2018-12-12T04:21:05.011Z,2.13
2018-12-12T04:24:06.795Z,2.12
2018-12-12T04:27:08.574Z,2.12
2018-12-12T04:30:10.467Z,2.13
2018-12-12T04:33:12.335Z,2.12
2018-12-12T04:36:14.255Z,2.11
2018-12-12T04:39:15.999Z,2.14
2018-12-12T04:42:17.717Z,2.15
2018-12-12T04:45:19.370Z,2.10
2018-12-12T04:48:21.086Z,2.11
2018-12-12T04:51:22.865Z,2.14
2018-12-12T04:54:24.596Z,2.12
2018-12-12T04:57:26.350Z,2.14
2018-12-12T05:00:28.060Z,2.17
2018-12-12T05:03:29.735Z,2.21
2018-12-12T05:06:31.529Z,2.23
2018-12-12T05:09:33.322Z,2.24
2018-12-12T05:12:35.057Z,2.28
2018-12-12T05:15:36.811Z,2.23
2018-12-12T05:18:38.532Z,2.20
2018-12-12T05:21:40.257Z,2.21
2018-12-12T05:24:42.015Z,2.26
2018-12-12T05:27:43.737Z,2.27
2018-12-12T05:30:45.530Z,2.26
2018-12-12T05:33:47.331Z,2.30
2018-12-12T05:36:51.189Z,2.32
2018-12-12T05:41:57.620Z,2.22
2018-12-12T05:44:59.483Z,2.19
2018-12-12T05:48:01.236Z,2.22
2018-12-12T05:51:03.015Z,2.19
2018-12-12T05:54:04.911Z,2.10
2018-12-12T05:57:08.267Z,2.06
2018-12-12T06:00:12.108Z,2.03
2018-12-12T06:03:13.879Z,2.06
2018-12-12T06:06:15.747Z,2.05
2018-12-12T06:09:17.623Z,2.06
2018-12-12T06:12:19.426Z,2.11
2018-12-12T06:15:21.157Z,2.13
2018-12-12T06:18:22.885Z,2.19
2018-12-12T06:21:24.722Z,2.23
2018-12-12T06:24:26.454Z,2.27
2018-12-12T06:27:28.283Z,2.32
2018-12-12T06:30:29.999Z,2.38
2018-12-12T06:33:31.766Z,2.36
2018-12-12T06:36:33.484Z,2.34
2018-12-12T06:39:35.236Z,2.32
2018-12-12T06:42:37.015Z,2.27
2018-12-12T06:45:45.817Z,2.20
2018-12-12T06:48:47.573Z,2.17
2018-12-12T06:51:49.330Z,2.07
2018-12-12T06:54:51.128Z,2.07
2018-12-12T06:57:52.857Z,2.01
2018-12-12T07:00:54.635Z,1.97
2018-12-12T07:03:56.326Z,1.96
2018-12-12T07:06:58.623Z,1.96
2018-12-12T07:13:13.785Z,1.99
2018-12-12T07:16:15.536Z,2.02
2018-12-12T07:19:17.251Z,2.05
2018-12-12T07:22:19.235Z,2.07
2018-12-12T07:25:21.007Z,2.08
2018-12-12T07:28:22.777Z,2.15
2018-12-12T07:31:24.509Z,2.17
2018-12-12T07:34:26.352Z,2.17
2018-12-12T07:37:28.361Z,2.19
2018-12-12T07:40:30.331Z,2.23
2018-12-12T07:43:34.200Z,2.25
2018-12-12T07:46:42.457Z,2.31
2018-12-12T07:49:46.370Z,2.40
2018-12-12T07:52:54.415Z,2.46
2018-12-12T07:55:56.102Z,2.44
2018-12-12T07:58:58.960Z,2.42
2018-12-12T08:02:01.228Z,2.44
2018-12-12T08:05:03.136Z,2.46
2018-12-12T08:08:04.960Z,2.53
2018-12-12T08:11:06.786Z,2.56
2018-12-12T08:14:08.567Z,2.53
2018-12-12T08:17:10.393Z,2.53
2018-12-12T08:20:12.124Z,2.61
2018-12-12T08:23:14.291Z,2.62
2018-12-12T08:26:16.177Z,2.60
2018-12-12T08:29:17.956Z,2.62
2018-12-12T08:35:37.267Z,2.55
2018-12-12T08:38:39.039Z,2.57
2018-12-12T08:41:40.891Z,2.55
2018-12-12T08:44:42.599Z,2.52
2018-12-12T08:47:44.381Z,2.42
2018-12-12T08:50:46.136Z,2.38
2018-12-12T08:53:48.025Z,2.47
2018-12-12T08:56:50.813Z,2.48
2018-12-12T08:59:52.601Z,2.51
2018-12-12T09:02:55.482Z,2.50
2018-12-12T09:05:57.253Z,2.54
2018-12-12T09:08:58.998Z,2.61
2018-12-12T09:12:00.791Z,2.68
2018-12-12T09:15:02.770Z,2.67
2018-12-12T09:18:05.577Z,2.70
2018-12-12T09:21:14.234Z,2.71
2018-12-12T09:24:15.991Z,2.82
2018-12-12T09:27:17.728Z,2.86
2018-12-12T09:30:19.491Z,2.88
2018-12-12T09:33:24.730Z,2.93
2018-12-12T09:36:29.100Z,2.93
2018-12-12T09:39:30.901Z,2.89
2018-12-12T09:42:32.899Z,2.85
2018-12-12T09:45:34.596Z,2.84
2018-12-12T09:48:36.364Z,2.86
2018-12-12T09:51:38.114Z,2.84
2018-12-12T09:54:42.043Z,2.87
2018-12-12T09:57:43.783Z,2.94
2018-12-12T10:00:45.482Z,3.15
2018-12-12T10:03:47.682Z,3.23
2018-12-12T10:06:56.411Z,3.10
2018-12-12T10:09:58.300Z,3.06
2018-12-12T10:13:00.162Z,3.09
2018-12-12T10:16:01.923Z,3.12
2018-12-12T10:19:03.637Z,3.16
2018-12-12T10:22:05.453Z,3.09
2018-12-12T10:25:07.212Z,2.98
2018-12-12T10:28:10.058Z,2.93
2018-12-12T10:31:18.702Z,2.89
2018-12-12T10:34:27.261Z,2.82
2018-12-12T10:37:29.021Z,2.79
2018-12-12T10:40:30.739Z,2.76
2018-12-12T10:43:32.508Z,2.80
2018-12-12T10:46:34.765Z,2.87
2018-12-12T10:49:36.479Z,2.96
2018-12-12T10:52:38.268Z,3.08
2018-12-12T10:55:40.057Z,3.13
2018-12-12T10:58:41.850Z,3.21
2018-12-12T11:01:46.642Z,3.37
2018-12-12T11:04:48.608Z,3.54
2018-12-12T11:07:50.484Z,3.56
2018-12-12T11:10:52.425Z,3.52
2018-12-12T11:13:54.423Z,3.56
2018-12-12T11:16:56.179Z,3.43
2018-12-12T11:19:58.029Z,3.22
2018-12-12T11:22:59.830Z,2.99
2018-12-12T11:26:01.600Z,2.69
2018-12-12T11:29:03.365Z,2.39
2018-12-12T11:32:05.076Z,2.21
2018-12-12T11:35:06.894Z,2.14
2018-12-12T11:38:08.607Z,2.17
2018-12-12T11:41:10.430Z,2.15
2018-12-12T11:44:12.203Z,2.20
2018-12-12T11:47:14.000Z,2.32
2018-12-12T11:50:15.707Z,2.43
2018-12-12T11:53:17.454Z,2.50
2018-12-12T11:56:19.134Z,2.59
2018-12-12T11:59:20.963Z,2.71
2018-12-12T12:02:22.725Z,2.86
2018-12-12T12:05:24.463Z,2.90
2018-12-12T12:08:26.217Z,2.95
2018-12-12T12:11:28.146Z,2.99
2018-12-12T12:14:31.937Z,3.00
2018-12-12T12:17:33.606Z,3.04
2018-12-12T12:20:35.448Z,3.09
2018-12-12T12:23:37.235Z,3.14
2018-12-12T12:26:39.054Z,3.07
2018-12-12T12:29:40.824Z,3.11
2018-12-12T12:32:42.615Z,3.11
2018-12-12T12:35:44.386Z,3.17
2018-12-12T12:38:46.117Z,3.13
2018-12-12T12:41:48.000Z,3.15
2018-12-12T12:44:50.085Z,3.14
2018-12-12T12:47:51.857Z,3.16
2018-12-12T12:50:53.683Z,3.07
2018-12-12T12:53:55.528Z,3.00
2018-12-12T12:56:57.418Z,2.93
2018-12-12T12:59:59.165Z,2.86
2018-12-12T13:03:00.934Z,2.79
2018-12-12T13:06:02.682Z,2.71
2018-12-12T13:09:05.960Z,2.64
2018-12-12T13:15:29.269Z,2.56
2018-12-12T13:18:31.141Z,2.56
2018-12-12T13:21:32.935Z,2.55
2018-12-12T13:24:35.139Z,2.58
2018-12-12T13:27:36.946Z,2.54
2018-12-12T13:30:39.719Z,2.58
2018-12-12T13:33:41.488Z,2.62
2018-12-12T13:36:43.245Z,2.61
2018-12-12T13:39:44.995Z,2.62
2018-12-12T13:42:46.782Z,2.65
2018-12-12T13:45:48.527Z,2.65
2018-12-12T13:48:51.380Z,2.66
2018-12-12T13:51:53.147Z,2.65
2018-12-12T13:54:54.961Z,2.61
2018-12-12T13:57:58.217Z,2.52
2018-12-12T14:01:00.126Z,2.47
2018-12-12T14:04:01.953Z,2.41
2018-12-12T14:07:03.752Z,2.36
2018-12-12T14:10:05.499Z,2.31
2018-12-12T14:13:07.243Z,2.23
2018-12-12T14:16:09.072Z,2.25
2018-12-12T14:19:10.869Z,2.27
2018-12-12T14:22:12.802Z,2.24
2018-12-12T14:25:14.638Z,2.22
2018-12-12T14:28:16.347Z,2.14
2018-12-12T14:31:18.076Z,2.12
2018-12-12T14:34:19.854Z,2.09
2018-12-12T14:37:21.583Z,2.08
2018-12-12T14:40:23.446Z,2.06
2018-12-12T14:43:25.257Z,1.98
2018-12-12T14:46:27.015Z,1.90
2018-12-12T14:49:28.771Z,1.84
2018-12-12T14:52:30.581Z,1.75
2018-12-12T14:55:32.436Z,1.62
2018-12-12T14:58:34.161Z,1.49
2018-12-12T15:01:35.940Z,1.38
2018-12-12T15:04:37.689Z,1.23
2018-12-12T15:07:39.403Z,1.10
2018-12-12T15:10:41.105Z,0.99
2018-12-12T15:13:43.274Z,0.88
2018-12-12T15:16:45.114Z,0.79
2018-12-12T15:19:46.968Z,0.69
2018-12-12T15:22:48.815Z,0.58
2018-12-12T15:25:50.651Z,0.51
2018-12-12T15:28:52.387Z,0.42
2018-12-12T15:31:54.200Z,0.30
2018-12-12T17:13:55.236Z,2.77
2018-12-12T17:16:57.175Z,2.68
2018-12-12T17:20:00.195Z,2.62
2018-12-12T17:23:01.861Z,2.62
2018-12-12T17:26:03.692Z,2.56
2018-12-12T17:29:07.374Z,2.56
2018-12-12T17:32:10.966Z,2.59
2018-12-12T17:35:13.030Z,2.65
2018-12-12T17:38:15.198Z,2.64
2018-12-12T17:41:17.069Z,2.65
2018-12-12T17:44:18.809Z,2.65
2018-12-12T17:47:20.649Z,2.69
2018-12-12T17:50:22.590Z,2.67
2018-12-12T17:53:24.539Z,2.69
2018-12-12T17:56:26.478Z,2.62
2018-12-12T17:59:28.407Z,2.49
2018-12-12T18:02:30.847Z,2.39
2018-12-12T18:05:39.128Z,2.40
2018-12-12T18:08:40.978Z,2.38
2018-12-12T18:11:43.979Z,2.33
2018-12-12T18:14:46.710Z,2.33
2018-12-12T18:17:50.791Z,2.27
2018-12-12T18:20:52.997Z,2.25
2018-12-12T18:23:56.803Z,2.17
2018-12-12T18:26:59.027Z,2.17
2018-12-12T18:30:00.875Z,2.12
2018-12-12T18:33:04.803Z,2.02
2018-12-12T18:36:25.475Z,1.92
2018-12-12T18:39:27.415Z,1.90
2018-12-12T18:42:29.227Z,1.92
2018-12-12T18:45:32.000Z,1.89
2018-12-12T18:48:35.257Z,1.86
2018-12-12T18:51:40.267Z,1.80
2018-12-12T18:54:42.012Z,1.70
2018-12-12T18:57:45.940Z,1.62
2018-12-12T19:00:47.821Z,1.53
2018-12-12T19:03:49.712Z,1.48
2018-12-12T19:06:53.273Z,1.38
2018-12-12T19:13:13.171Z,1.24
2018-12-12T19:16:15.020Z,1.23
2018-12-12T19:19:16.940Z,1.18
2018-12-12T19:22:19.357Z,1.21
2018-12-12T19:25:21.326Z,1.23
2018-12-12T19:28:24.289Z,1.20
2018-12-12T19:31:27.110Z,1.15
2018-12-12T19:34:29.048Z,1.17
2018-12-12T19:37:33.872Z,1.32
2018-12-12T19:40:35.659Z,1.52
2018-12-12T19:43:38.292Z,1.73
2018-12-12T19:46:41.499Z,1.90
2018-12-12T19:49:45.464Z,2.06
2018-12-12T19:52:47.957Z,2.17
2018-12-12T19:55:49.769Z,2.24
2018-12-12T19:58:51.566Z,2.33
2018-12-12T20:01:54.430Z,2.40
2018-12-12T20:04:56.771Z,2.50
2018-12-12T20:07:59.820Z,2.56
2018-12-12T20:11:02.541Z,2.61
2018-12-12T20:14:05.531Z,2.66
2018-12-12T20:17:08.247Z,2.69
2018-12-12T20:20:10.111Z,2.76
2018-12-12T20:23:13.901Z,2.83
2018-12-12T20:26:16.314Z,2.94
2018-12-12T20:29:18.118Z,2.97
2018-12-12T20:32:20.621Z,2.99
2018-12-12T20:35:22.422Z,2.99
2018-12-12T20:38:25.263Z,3.00
2018-12-12T20:41:27.520Z,3.00
2018-12-12T20:44:29.543Z,2.99
2018-12-12T20:47:32.387Z,2.99
2018-12-12T20:50:34.577Z,2.96
2018-12-12T20:53:36.405Z,2.92
2018-12-12T20:56:38.263Z,2.82
2018-12-12T20:59:40.578Z,2.80
2018-12-12T21:02:42.367Z,2.67
2018-12-12T21:05:44.165Z,2.41
2018-12-12T21:08:47.084Z,2.25
2018-12-12T21:11:48.983Z,2.31
2018-12-12T21:14:50.759Z,2.42
2018-12-12T21:17:52.596Z,2.39
2018-12-12T21:20:55.146Z,2.32
2018-12-12T21:23:56.928Z,2.27
2018-12-12T21:26:59.636Z,2.18
2018-12-12T21:30:01.554Z,2.17
2018-12-12T21:33:03.248Z,2.24
2018-12-12T21:36:05.038Z,2.25
2018-12-12T21:39:07.386Z,2.30
2018-12-12T21:42:10.367Z,2.40
2018-12-12T21:45:12.176Z,2.53
2018-12-12T21:48:16.831Z,2.55
2018-12-12T21:51:18.625Z,2.57
2018-12-12T21:54:21.380Z,2.46
2018-12-12T21:57:23.727Z,2.47
2018-12-12T22:00:25.466Z,2.45
2018-12-12T22:03:27.199Z,2.43
2018-12-12T22:06:28.876Z,2.39
2018-12-12T22:09:30.728Z,2.35
2018-12-12T22:12:32.432Z,2.28
2018-12-12T22:15:34.134Z,2.29
2018-12-12T22:18:35.879Z,2.28
2018-12-12T22:21:37.655Z,2.13
2018-12-12T22:24:39.426Z,2.17
2018-12-12T22:27:41.462Z,2.24
2018-12-12T22:30:43.324Z,2.35
2018-12-12T22:33:45.098Z,2.44
2018-12-12T22:36:46.820Z,2.52
2018-12-12T22:39:48.579Z,2.56
2018-12-12T22:42:50.323Z,2.59
2018-12-12T22:45:52.067Z,2.67
2018-12-12T22:48:53.873Z,2.76
2018-12-12T22:51:55.822Z,2.75
2018-12-12T22:54:57.572Z,2.79
2018-12-12T22:57:59.305Z,2.89
2018-12-12T23:01:03.945Z,2.89
2018-12-12T23:04:05.757Z,2.91
2018-12-12T23:07:07.528Z,3.02
2018-12-12T23:10:09.246Z,3.14
2018-12-12T23:13:10.976Z,3.17
2018-12-12T23:16:12.695Z,3.21
2018-12-12T23:19:14.487Z,3.27
2018-12-12T23:22:16.289Z,3.32
2018-12-12T23:25:18.112Z,3.32
2018-12-12T23:28:19.872Z,3.39
2018-12-12T23:31:21.582Z,3.47
2018-12-12T23:34:23.295Z,3.54
2018-12-12T23:37:25.026Z,3.55
2018-12-12T23:40:26.784Z,3.58
2018-12-12T23:43:28.498Z,3.57
2018-12-12T23:46:30.259Z,3.54
2018-12-12T23:49:31.967Z,3.55
2018-12-12T23:52:33.875Z,3.55
2018-12-12T23:55:36.752Z,3.49
2018-12-12T23:58:38.520Z,3.44
